Time;durP1;ratioP1;P1;durP2;ratioP2;P2;SDS_P1;SDS_P2;PMS_P1;PMS_P2;Temp;Humidity;BMP_temperature;BMP_pressure;BME280_temperature;BME280_humidity;BME280_pressure;Samples;Min_cycle;Max_cycle;Signal;HPM_P1;HPM_P2
2022/01/07 00:02:13;;;;;;;22.35;11.57;;;-1.20;99.90;;;;;;5069363;28;20059;-79
2022/01/07 00:04:39;;;;;;;21.05;11.80;;;-1.30;99.90;;;;;;5088566;28;20023;-80
2022/01/07 00:07:05;;;;;;;23.17;11.45;;;-1.20;99.90;;;;;;5084151;28;20265;-80
2022/01/07 00:09:31;;;;;;;21.75;11.40;;;-1.30;99.90;;;;;;5088470;28;20044;-80
2022/01/07 00:11:58;;;;;;;19.70;11.25;;;-1.30;99.90;;;;;;5086267;28;20039;-78
2022/01/07 00:14:23;;;;;;;21.10;10.63;;;-1.30;99.90;;;;;;5067870;28;20056;-79
2022/01/07 00:16:49;;;;;;;18.88;10.75;;;-1.30;99.90;;;;;;5065085;28;20041;-79
2022/01/07 00:19:15;;;;;;;20.10;10.98;;;-1.40;99.90;;;;;;5084092;28;20031;-79
2022/01/07 00:21:41;;;;;;;21.55;11.57;;;-1.40;99.90;;;;;;5049012;28;20059;-80
2022/01/07 00:24:08;;;;;;;26.05;12.90;;;-1.40;99.90;;;;;;5084080;28;20028;-79
2022/01/07 00:26:33;;;;;;;24.60;12.50;;;-1.40;99.90;;;;;;5066190;28;20315;-80
2022/01/07 00:28:59;;;;;;;27.08;12.02;;;-1.30;99.90;;;;;;5065577;28;20044;-79
2022/01/07 00:31:25;;;;;;;21.20;11.98;;;-1.40;99.90;;;;;;5065458;28;20399;-78
2022/01/07 00:33:51;;;;;;;24.73;13.20;;;-1.30;99.90;;;;;;5069996;28;20180;-79
2022/01/07 00:36:16;;;;;;;21.38;13.68;;;-1.40;99.90;;;;;;5086176;28;20028;-79
2022/01/07 00:38:42;;;;;;;26.20;13.02;;;-1.50;99.90;;;;;;5103693;28;20031;-78
2022/01/07 00:41:08;;;;;;;25.08;12.70;;;-1.40;99.90;;;;;;5104496;28;20247;-78
2022/01/07 00:43:34;;;;;;;23.73;11.85;;;-1.30;99.90;;;;;;5104185;28;20008;-79
2022/01/07 00:46:00;;;;;;;22.15;12.07;;;-1.40;99.90;;;;;;5084933;28;20039;-79
2022/01/07 00:48:26;;;;;;;21.13;10.27;;;-1.40;99.90;;;;;;5103889;28;20031;-79
2022/01/07 00:50:52;;;;;;;24.70;10.98;;;-1.40;99.90;;;;;;5103223;28;20024;-78
2022/01/07 00:53:18;;;;;;;19.42;10.20;;;-1.40;99.90;;;;;;5085256;28;20038;-79
2022/01/07 00:55:43;;;;;;;21.02;10.70;;;-1.40;99.90;;;;;;5070703;28;20032;-80
2022/01/07 00:58:09;;;;;;;21.27;11.20;;;-1.40;99.90;;;;;;5083761;28;20024;-80
2022/01/07 01:00:35;;;;;;;21.38;10.95;;;-1.40;99.90;;;;;;5082703;28;20043;-79
2022/01/07 01:03:01;;;;;;;25.20;11.93;;;-1.50;99.90;;;;;;5082234;28;20055;-81
2022/01/07 01:05:28;;;;;;;23.75;11.82;;;-1.40;99.90;;;;;;5065895;28;20282;-78
2022/01/07 01:07:55;;;;;;;25.83;12.38;;;-1.30;99.90;;;;;;5065208;28;20206;-80
2022/01/07 01:10:24;;;;;;;22.98;10.95;;;-1.40;99.90;;;;;;5065463;28;20175;-80
2022/01/07 01:12:52;;;;;;;20.30;10.98;;;-1.40;99.90;;;;;;5064733;28;20029;-80
2022/01/07 01:15:21;;;;;;;19.17;10.98;;;-1.50;99.90;;;;;;5080564;28;20226;-79
2022/01/07 01:17:49;;;;;;;20.40;11.52;;;-1.50;99.90;;;;;;5064793;28;20064;-79
2022/01/07 01:20:15;;;;;;;20.58;11.23;;;-1.40;99.90;;;;;;5065471;28;20070;-80
2022/01/07 01:22:41;;;;;;;16.08;9.90;;;-1.40;99.90;;;;;;5064918;28;20223;-80
2022/01/07 01:25:08;;;;;;;22.50;11.07;;;-1.50;99.90;;;;;;5048357;28;20039;-81
2022/01/07 01:27:34;;;;;;;20.77;10.98;;;-1.50;99.90;;;;;;5065309;28;20092;-81
2022/01/07 01:30:01;;;;;;;25.10;13.40;;;-1.30;99.90;;;;;;5083028;28;20012;-81
2022/01/07 01:32:27;;;;;;;24.90;11.83;;;-1.30;99.90;;;;;;5048947;28;20206;-82
2022/01/07 01:34:53;;;;;;;25.25;12.63;;;-1.30;99.90;;;;;;5083010;28;20472;-82
2022/01/07 01:37:19;;;;;;;28.05;13.13;;;-1.30;99.90;;;;;;5071082;28;20100;-82
2022/01/07 01:39:44;;;;;;;29.77;14.45;;;-1.20;99.90;;;;;;5049169;28;20063;-81
2022/01/07 01:42:10;;;;;;;23.98;13.00;;;-1.30;99.90;;;;;;5083320;28;20024;-80
2022/01/07 01:44:36;;;;;;;27.73;13.93;;;-1.30;99.90;;;;;;5083196;28;20084;-80
2022/01/07 01:47:03;;;;;;;23.33;13.98;;;-1.30;99.90;;;;;;5083497;28;20063;-82
2022/01/07 01:49:29;;;;;;;28.25;14.75;;;-1.30;99.90;;;;;;5049266;28;20056;-81
2022/01/07 01:51:55;;;;;;;25.90;14.93;;;-1.30;99.90;;;;;;5064804;28;20039;-81
2022/01/07 01:54:21;;;;;;;26.70;14.20;;;-1.30;99.90;;;;;;5064965;28;20029;-81
2022/01/07 01:56:47;;;;;;;30.40;15.05;;;-1.40;99.90;;;;;;5068252;28;20263;-81
2022/01/07 01:59:13;;;;;;;28.10;15.35;;;-1.50;99.90;;;;;;5103238;28;20184;-81
2022/01/07 02:01:40;;;;;;;30.00;16.02;;;-1.40;99.90;;;;;;5104415;28;20036;-80
2022/01/07 02:04:07;;;;;;;28.60;15.20;;;-1.30;99.90;;;;;;5069251;28;20059;-81
2022/01/07 02:06:34;;;;;;;26.83;14.52;;;-1.30;99.90;;;;;;5085551;28;20096;-80
2022/01/07 02:09:00;;;;;;;26.05;14.30;;;-1.30;99.90;;;;;;5068560;28;20020;-81
2022/01/07 02:11:26;;;;;;;27.48;14.48;;;-1.30;99.90;;;;;;5085684;28;20067;-80
2022/01/07 02:13:56;;;;;;;27.98;15.35;;;-1.30;99.90;;;;;;5102714;28;20036;-80
2022/01/07 02:16:27;;;;;;;24.95;13.63;;;-1.30;99.90;;;;;;5103122;28;20091;-81
2022/01/07 02:18:53;;;;;;;26.00;14.80;;;-1.30;99.90;;;;;;5079575;28;20271;-81
2022/01/07 02:21:38;;;;;;;27.20;14.65;;;-1.30;99.90;;;;;;5084868;28;20098;-82
2022/01/07 02:24:06;;;;;;;26.85;13.73;;;-1.30;99.90;;;;;;5084990;28;20089;-82
2022/01/07 02:26:33;;;;;;;34.60;15.40;;;-1.40;99.90;;;;;;5102790;28;20035;-82
2022/01/07 02:29:00;;;;;;;26.27;15.03;;;-1.30;99.90;;;;;;5067631;28;20219;-81
2022/01/07 02:31:26;;;;;;;27.25;14.02;;;-1.20;99.90;;;;;;5068126;28;20489;-82
2022/01/07 02:33:53;;;;;;;26.70;13.50;;;-1.20;99.90;;;;;;5084501;28;20065;-81
2022/01/07 02:36:19;;;;;;;28.67;13.57;;;-1.20;99.90;;;;;;5084733;28;20103;-82
2022/01/07 02:38:44;;;;;;;23.52;13.23;;;-1.30;99.90;;;;;;5094034;28;20016;-81
2022/01/07 02:41:10;;;;;;;23.50;11.63;;;-1.30;99.90;;;;;;5064405;28;20099;-81
2022/01/07 02:43:36;;;;;;;22.70;12.68;;;-1.30;99.90;;;;;;5064632;28;20239;-81
2022/01/07 02:46:03;;;;;;;25.92;13.48;;;-1.30;99.90;;;;;;5064135;28;20037;-82
2022/01/07 02:48:29;;;;;;;24.90;13.45;;;-1.20;99.90;;;;;;5048055;28;20237;-81
2022/01/07 02:50:55;;;;;;;27.00;13.40;;;-1.20;99.90;;;;;;5082104;28;20047;-82
2022/01/07 02:53:21;;;;;;;23.83;13.15;;;-1.20;99.90;;;;;;5082684;28;20028;-82
2022/01/07 02:55:47;;;;;;;25.35;13.07;;;-1.30;99.90;;;;;;5064670;28;20123;-81
2022/01/07 02:58:13;;;;;;;27.67;13.50;;;-1.20;99.90;;;;;;5081849;28;20246;-82
2022/01/07 03:00:39;;;;;;;25.38;13.38;;;-1.20;99.90;;;;;;5085797;28;20355;-81
2022/01/07 03:03:06;;;;;;;25.80;12.73;;;-1.30;99.90;;;;;;5082135;28;20105;-80
2022/01/07 03:05:32;;;;;;;25.33;12.20;;;-1.30;99.90;;;;;;5064323;28;20301;-80
2022/01/07 03:07:58;;;;;;;24.27;12.43;;;-1.40;99.90;;;;;;5047645;28;20234;-80
2022/01/07 03:10:29;;;;;;;22.42;12.63;;;-1.40;99.90;;;;;;5051630;28;20353;-80
2022/01/07 03:13:00;;;;;;;26.42;11.77;;;-1.40;99.90;;;;;;5085754;28;20040;-80
2022/01/07 03:15:27;;;;;;;24.23;12.48;;;-1.50;99.90;;;;;;5051752;28;20215;-81
2022/01/07 03:17:53;;;;;;;27.92;12.95;;;-1.50;99.90;;;;;;5086207;28;20024;-81
2022/01/07 03:20:20;;;;;;;26.15;13.85;;;-1.60;99.90;;;;;;5070505;28;20091;-81
2022/01/07 03:23:09;;;;;;;23.48;12.77;;;-1.60;99.90;;;;;;5068926;28;20052;-80
2022/01/07 03:25:36;;;;;;;27.02;12.93;;;-1.60;99.90;;;;;;5067463;28;20047;-80
2022/01/07 03:28:02;;;;;;;25.30;12.82;;;-1.60;99.90;;;;;;5050647;28;20210;-79
2022/01/07 03:30:28;;;;;;;21.65;12.18;;;-1.60;99.90;;;;;;5051086;28;20033;-79
2022/01/07 03:32:54;;;;;;;21.15;12.43;;;-1.70;99.90;;;;;;5084497;28;20039;-80
2022/01/07 03:35:20;;;;;;;19.67;11.60;;;-1.70;99.90;;;;;;5084536;28;20036;-79
2022/01/07 03:37:48;;;;;;;24.23;11.30;;;-1.70;99.90;;;;;;5063267;28;20025;-81
2022/01/07 03:40:14;;;;;;;21.45;12.95;;;-1.70;99.90;;;;;;5063559;28;20040;-80
2022/01/07 03:42:40;;;;;;;21.02;12.07;;;-1.60;99.90;;;;;;5063232;28;20033;-80
2022/01/07 03:45:08;;;;;;;26.05;12.23;;;-1.60;99.90;;;;;;5063855;28;20025;-81
2022/01/07 03:47:34;;;;;;;20.67;12.05;;;-1.50;99.90;;;;;;5063339;28;20041;-79
2022/01/07 03:50:00;;;;;;;20.67;11.23;;;-1.60;99.90;;;;;;5045990;28;20040;-79
2022/01/07 03:52:26;;;;;;;22.25;11.60;;;-1.70;99.90;;;;;;5046274;28;20033;-79
2022/01/07 03:54:52;;;;;;;20.08;11.20;;;-1.70;99.90;;;;;;5048675;28;20055;-79
2022/01/07 03:57:18;;;;;;;21.17;11.20;;;-1.70;99.90;;;;;;5047316;28;20181;-80
2022/01/07 03:59:44;;;;;;;20.45;10.45;;;-1.70;99.90;;;;;;5046154;28;20378;-79
2022/01/07 04:02:11;;;;;;;20.38;11.52;;;-1.60;99.90;;;;;;5072675;28;20063;-79
2022/01/07 04:04:36;;;;;;;19.38;10.70;;;-1.60;99.90;;;;;;5066287;28;20067;-80
2022/01/07 04:07:02;;;;;;;19.48;10.90;;;-1.50;99.90;;;;;;5082450;28;20029;-79
2022/01/07 04:09:29;;;;;;;19.38;10.50;;;-1.50;99.90;;;;;;5101033;28;20048;-80
2022/01/07 04:11:58;;;;;;;20.17;11.52;;;-1.50;99.90;;;;;;5105232;28;20016;-81
2022/01/07 04:14:24;;;;;;;18.65;10.88;;;-1.60;99.90;;;;;;5043259;28;20037;-80
2022/01/07 04:16:49;;;;;;;20.45;11.02;;;-1.50;99.90;;;;;;5043141;28;20037;-80
2022/01/07 04:19:15;;;;;;;19.38;10.57;;;-1.60;99.90;;;;;;5042080;28;20310;-80
2022/01/07 04:21:41;;;;;;;21.33;10.40;;;-1.50;99.90;;;;;;5036352;28;20042;-79
2022/01/07 04:24:07;;;;;;;22.45;11.63;;;-1.50;99.90;;;;;;5022472;28;20324;-80
2022/01/07 04:26:32;;;;;;;23.25;11.23;;;-1.50;99.90;;;;;;5023351;28;20061;-80
2022/01/07 04:28:59;;;;;;;19.42;10.57;;;-1.40;99.90;;;;;;5022521;28;20030;-81
2022/01/07 04:31:25;;;;;;;18.88;10.25;;;-1.50;99.90;;;;;;5022769;28;20076;-80
2022/01/07 04:33:50;;;;;;;18.25;9.82;;;-1.40;99.90;;;;;;5023039;28;20244;-80
2022/01/07 04:36:17;;;;;;;20.38;10.35;;;-1.40;99.90;;;;;;5022231;28;20214;-81
2022/01/07 04:38:44;;;;;;;17.95;9.85;;;-1.40;99.90;;;;;;5022623;28;20092;-80
2022/01/07 04:41:10;;;;;;;19.48;9.95;;;-1.40;99.90;;;;;;5021978;28;20025;-81
2022/01/07 04:43:36;;;;;;;19.85;9.68;;;-1.50;99.90;;;;;;5048535;28;20048;-80
2022/01/07 04:46:01;;;;;;;16.15;9.07;;;-1.40;99.90;;;;;;5058623;28;20030;-81
2022/01/07 04:48:27;;;;;;;20.67;9.93;;;-1.50;99.90;;;;;;5042119;28;20075;-80
2022/01/07 04:50:53;;;;;;;20.63;9.63;;;-1.50;99.90;;;;;;5067054;28;20026;-80
2022/01/07 04:53:20;;;;;;;15.90;8.95;;;-1.40;99.90;;;;;;5103680;28;20055;-80
2022/01/07 04:55:46;;;;;;;16.25;8.77;;;-1.40;99.90;;;;;;5104259;28;20061;-80
2022/01/07 04:58:13;;;;;;;15.68;9.10;;;-1.30;99.90;;;;;;5120134;28;20020;-82
2022/01/07 05:00:43;;;;;;;15.30;9.32;;;-1.40;99.90;;;;;;5070012;28;20149;-80
2022/01/07 05:03:09;;;;;;;16.05;8.85;;;-1.40;99.90;;;;;;5080368;28;20024;-80
2022/01/07 05:05:36;;;;;;;18.02;9.30;;;-1.40;99.90;;;;;;5086181;28;20031;-80
2022/01/07 05:08:03;;;;;;;17.88;8.65;;;-1.40;99.90;;;;;;5119433;28;20028;-82
2022/01/07 05:10:29;;;;;;;18.77;9.73;;;-1.40;99.90;;;;;;5104169;28;20024;-81
2022/01/07 05:12:55;;;;;;;15.68;9.07;;;-1.40;99.90;;;;;;5086286;28;20028;-81
2022/01/07 05:15:23;;;;;;;17.10;8.75;;;-1.40;99.90;;;;;;5068546;28;20062;-80
2022/01/07 05:17:49;;;;;;;15.02;8.40;;;-1.40;99.90;;;;;;5119751;28;20222;-79
2022/01/07 05:20:16;;;;;;;14.45;8.05;;;-1.40;99.90;;;;;;5085412;28;20028;-79
2022/01/07 05:22:43;;;;;;;16.77;8.52;;;-1.30;99.90;;;;;;5085208;28;20067;-80
2022/01/07 05:25:11;;;;;;;16.42;8.43;;;-1.20;99.90;;;;;;5056092;28;20059;-80
2022/01/07 05:27:37;;;;;;;15.48;8.00;;;-1.20;99.90;;;;;;5065587;28;20311;-80
2022/01/07 05:30:08;;;;;;;14.75;8.10;;;-1.20;99.90;;;;;;5065399;28;20078;-81
2022/01/07 05:32:33;;;;;;;18.63;8.73;;;-1.20;99.90;;;;;;5064832;28;20112;-81
2022/01/07 05:34:59;;;;;;;18.50;8.45;;;-1.20;99.90;;;;;;5065378;28;20314;-80
2022/01/07 05:37:25;;;;;;;16.02;9.18;;;-1.10;99.90;;;;;;5083652;28;20016;-80
2022/01/07 05:39:51;;;;;;;17.02;7.93;;;-1.10;99.90;;;;;;5065314;28;20029;-80
2022/01/07 05:42:17;;;;;;;17.80;8.90;;;-1.10;99.90;;;;;;5082739;28;20052;-79
2022/01/07 05:44:42;;;;;;;19.98;9.48;;;-1.10;99.90;;;;;;5046785;28;20024;-81
2022/01/07 05:47:08;;;;;;;14.90;8.48;;;-1.10;99.90;;;;;;5050123;28;20223;-80
2022/01/07 05:49:34;;;;;;;18.92;9.38;;;-1.10;99.90;;;;;;5048843;28;20096;-80
2022/01/07 05:52:00;;;;;;;19.00;9.32;;;-1.10;99.90;;;;;;5064357;28;20043;-80
2022/01/07 05:54:25;;;;;;;16.65;9.15;;;-1.10;99.90;;;;;;5049334;28;20016;-80
2022/01/07 05:56:51;;;;;;;18.48;9.10;;;-1.00;99.90;;;;;;5051318;28;20246;-82
2022/01/07 05:59:17;;;;;;;19.15;9.23;;;-1.00;99.90;;;;;;5065478;28;20028;-82
2022/01/07 06:01:44;;;;;;;23.73;9.77;;;-1.00;99.90;;;;;;5070764;28;20038;-80
2022/01/07 06:04:12;;;;;;;17.17;9.18;;;-1.00;99.90;;;;;;5084533;28;20016;-81
2022/01/07 06:07:03;;;;;;;17.52;9.10;;;-1.00;99.90;;;;;;5086522;28;20031;-81
2022/01/07 06:09:29;;;;;;;20.98;10.23;;;-1.00;99.90;;;;;;5084506;28;20107;-81
2022/01/07 06:11:55;;;;;;;17.35;9.02;;;-1.00;99.90;;;;;;5084624;28;20062;-81
2022/01/07 06:14:22;;;;;;;20.80;9.15;;;-1.00;99.90;;;;;;5084392;28;20107;-81
2022/01/07 06:16:47;;;;;;;17.45;8.73;;;-1.00;99.90;;;;;;5084025;28;20032;-81
2022/01/07 06:19:13;;;;;;;18.98;9.88;;;-1.00;99.90;;;;;;5072571;28;20127;-80
2022/01/07 06:21:39;;;;;;;17.05;10.23;;;-1.00;99.90;;;;;;5064450;28;20387;-80
2022/01/07 06:24:05;;;;;;;18.50;9.82;;;-1.00;99.90;;;;;;5047229;28;20323;-80
2022/01/07 06:26:31;;;;;;;19.65;9.70;;;-1.00;99.90;;;;;;5055163;28;20358;-82
2022/01/07 06:28:57;;;;;;;18.08;9.95;;;-1.00;99.90;;;;;;5020222;28;20061;-80
2022/01/07 06:31:24;;;;;;;17.75;9.25;;;-1.00;99.90;;;;;;5025188;28;20389;-81
2022/01/07 06:33:49;;;;;;;18.30;9.38;;;-0.90;99.90;;;;;;5027438;28;20043;-81
2022/01/07 06:36:15;;;;;;;18.88;9.90;;;-0.90;99.90;;;;;;5060518;28;20055;-80
2022/01/07 06:38:43;;;;;;;17.05;8.93;;;-0.90;99.90;;;;;;5061247;28;20339;-80
2022/01/07 06:41:12;;;;;;;17.90;9.18;;;-0.80;99.90;;;;;;5044869;28;20056;-81
2022/01/07 06:43:38;;;;;;;19.48;10.00;;;-0.80;99.90;;;;;;5047898;28;20032;-81
2022/01/07 06:46:05;;;;;;;17.77;9.15;;;-0.80;99.90;;;;;;5064271;28;20044;-82
2022/01/07 06:48:31;;;;;;;15.73;8.20;;;-0.70;99.90;;;;;;5067527;28;20028;-82
2022/01/07 06:50:57;;;;;;;14.85;7.95;;;-0.60;99.90;;;;;;5067834;28;20642;-80
2022/01/07 06:53:23;;;;;;;14.27;7.60;;;-0.40;99.90;;;;;;5067761;28;20344;-81
2022/01/07 06:55:49;;;;;;;17.25;8.05;;;-0.30;99.90;;;;;;5067905;28;20065;-81
2022/01/07 06:58:15;;;;;;;15.10;7.80;;;-0.20;99.90;;;;;;5083972;28;20310;-81
2022/01/07 07:00:43;;;;;;;15.57;7.97;;;-0.20;99.90;;;;;;5064861;28;20040;-80
2022/01/07 07:03:09;;;;;;;14.02;7.80;;;-0.20;99.90;;;;;;5085870;28;20042;-81
2022/01/07 07:05:35;;;;;;;13.93;7.72;;;-0.10;99.90;;;;;;5102139;28;20093;-81
2022/01/07 07:08:00;;;;;;;14.45;7.75;;;-0.10;99.90;;;;;;5080021;28;20091;-80
2022/01/07 07:10:26;;;;;;;13.93;8.15;;;0.00;99.90;;;;;;5106969;28;20327;-80
2022/01/07 07:12:55;;;;;;;15.63;7.90;;;-0.10;99.90;;;;;;5065475;28;20132;-81
2022/01/07 07:15:38;;;;;;;14.77;7.53;;;0.00;99.90;;;;;;5066069;28;20037;-81
2022/01/07 07:18:04;;;;;;;15.55;6.80;;;0.00;99.90;;;;;;5099078;28;20382;-81
2022/01/07 07:20:30;;;;;;;12.65;7.05;;;0.00;99.90;;;;;;5099352;28;20032;-82
2022/01/07 07:22:59;;;;;;;14.55;6.70;;;0.00;99.90;;;;;;5082342;28;20388;-81
2022/01/07 07:25:51;;;;;;;13.85;8.05;;;0.10;99.90;;;;;;5090552;28;20256;-81
2022/01/07 07:28:18;;;;;;;12.93;7.18;;;0.10;99.90;;;;;;5065493;28;20254;-81
2022/01/07 07:30:44;;;;;;;14.15;6.70;;;0.10;99.90;;;;;;5080688;28;20060;-84
2022/01/07 07:38:37;;;;;;;13.95;6.95;;;0.10;99.90;;;;;;5063972;28;20041;-80
2022/01/07 07:44:45;;;;;;;13.45;6.85;;;0.10;99.90;;;;;;5023492;28;20060;-80
2022/01/07 07:47:11;;;;;;;14.90;6.75;;;0.20;99.90;;;;;;5051945;28;20032;-80
2022/01/07 07:53:31;;;;;;;12.93;6.72;;;0.20;99.90;;;;;;5023083;28;20284;-81
2022/01/07 07:55:57;;;;;;;15.98;7.97;;;0.30;99.90;;;;;;5038710;28;20029;-80
2022/01/07 07:58:27;;;;;;;13.27;7.18;;;0.30;99.90;;;;;;5064618;28;20304;-80
2022/01/07 08:00:53;;;;;;;11.68;6.85;;;0.40;99.90;;;;;;5066709;28;20055;-81
2022/01/07 08:03:34;;;;;;;13.80;7.40;;;0.50;99.90;;;;;;5070799;28;20327;-82
2022/01/07 08:06:00;;;;;;;13.57;6.60;;;0.60;99.90;;;;;;5080109;28;20118;-81
2022/01/07 08:08:27;;;;;;;12.60;6.80;;;0.70;99.90;;;;;;5083257;28;20290;-83
2022/01/07 08:11:18;;;;;;;13.10;6.00;;;0.70;99.90;;;;;;5082737;28;20226;-80
2022/01/07 08:16:28;;;;;;;11.80;6.90;;;0.80;99.90;;;;;;5095454;28;20323;-80
2022/01/07 08:18:57;;;;;;;11.38;5.85;;;0.80;99.90;;;;;;5064289;28;20025;-81
2022/01/07 08:21:26;;;;;;;12.70;6.70;;;0.80;99.90;;;;;;5065580;28;20044;-81
2022/01/07 08:23:53;;;;;;;10.73;6.50;;;0.90;99.90;;;;;;5084437;28;20238;-81
2022/01/07 08:26:20;;;;;;;11.50;6.40;;;0.90;99.90;;;;;;5084158;28;20036;-80
2022/01/07 08:28:54;;;;;;;13.35;7.18;;;0.80;99.90;;;;;;5052782;28;20035;-80
2022/01/07 08:36:58;;;;;;;13.23;7.38;;;0.90;99.90;;;;;;5047730;28;20115;-80
2022/01/07 08:39:25;;;;;;;13.18;6.32;;;1.00;99.90;;;;;;5065967;28;20025;-79
2022/01/07 08:41:51;;;;;;;10.88;6.65;;;1.00;99.90;;;;;;5048747;28;20063;-80
2022/01/07 08:44:16;;;;;;;11.23;6.47;;;1.10;99.90;;;;;;5048092;28;20040;-81
2022/01/07 08:46:43;;;;;;;11.40;6.05;;;1.10;99.90;;;;;;5048150;28;20037;-81
2022/01/07 08:49:15;;;;;;;11.32;6.40;;;1.10;99.90;;;;;;5065521;28;20307;-80
2022/01/07 08:51:41;;;;;;;12.93;5.93;;;1.10;99.90;;;;;;5047833;28;20036;-80
2022/01/07 08:54:07;;;;;;;12.35;5.88;;;1.20;99.90;;;;;;5032121;28;20017;-82
2022/01/07 08:56:34;;;;;;;11.88;6.20;;;1.30;99.90;;;;;;5026821;28;20025;-81
2022/01/07 08:59:00;;;;;;;12.32;7.30;;;1.20;99.90;;;;;;5048438;28;20037;-80
2022/01/07 09:01:28;;;;;;;12.63;6.35;;;1.30;99.90;;;;;;5030628;28;20040;-81
2022/01/07 09:03:57;;;;;;;10.20;6.15;;;1.30;99.90;;;;;;5048964;28;20041;-81
2022/01/07 09:06:23;;;;;;;10.30;5.70;;;1.30;99.90;;;;;;5055654;28;20055;-81
2022/01/07 09:08:49;;;;;;;9.30;5.47;;;1.40;99.90;;;;;;5029154;28;20345;-82
2022/01/07 09:11:15;;;;;;;11.52;5.78;;;1.50;99.90;;;;;;5063094;28;20138;-83
2022/01/07 09:13:42;;;;;;;11.18;6.07;;;1.50;99.90;;;;;;5045617;28;20025;-83
2022/01/07 09:16:07;;;;;;;10.65;5.68;;;1.50;99.90;;;;;;5045354;28;20049;-81
2022/01/07 09:18:33;;;;;;;12.68;5.88;;;1.60;99.90;;;;;;5045747;28;20299;-81
2022/01/07 09:20:59;;;;;;;11.63;6.30;;;1.60;99.90;;;;;;5043837;28;20044;-80
2022/01/07 09:23:25;;;;;;;11.07;6.32;;;1.70;99.90;;;;;;5045149;28;20025;-82
2022/01/07 09:25:51;;;;;;;9.48;5.70;;;1.70;99.90;;;;;;5063331;28;20296;-81
2022/01/07 09:28:18;;;;;;;10.40;5.40;;;1.70;99.90;;;;;;5045478;28;20109;-81
2022/01/07 09:30:44;;;;;;;8.52;4.80;;;1.70;99.90;;;;;;5044903;28;20082;-81
2022/01/07 09:33:10;;;;;;;9.95;5.97;;;1.70;99.90;;;;;;5062690;28;20029;-80
2022/01/07 09:35:36;;;;;;;11.73;5.50;;;1.80;99.90;;;;;;5062346;28;20327;-81
2022/01/07 09:38:04;;;;;;;9.32;5.10;;;1.90;99.90;;;;;;5063179;28;20025;-81
2022/01/07 09:40:30;;;;;;;;;;;1.90;99.90;;;;;;5045876;28;20100;-82
2022/01/07 09:43:01;;;;;;;9.20;5.03;;;1.90;99.90;;;;;;5059064;28;19900;-82
2022/01/07 09:45:29;;;;;;;8.90;4.70;;;1.90;99.90;;;;;;5063945;28;20047;-81
2022/01/07 09:47:55;;;;;;;9.38;4.97;;;1.90;99.90;;;;;;5064732;28;20307;-82
2022/01/07 09:50:26;;;;;;;9.75;4.75;;;1.90;99.90;;;;;;5065013;28;20038;-82
2022/01/07 09:52:52;;;;;;;9.57;4.88;;;2.00;99.90;;;;;;5083413;28;20040;-83
2022/01/07 09:55:19;;;;;;;9.00;5.22;;;1.90;99.90;;;;;;5064825;28;20414;-81
2022/01/07 09:57:45;;;;;;;8.98;5.30;;;2.00;99.90;;;;;;5048742;28;20024;-83
2022/01/07 10:00:11;;;;;;;13.27;6.55;;;2.00;99.90;;;;;;5065373;28;20025;-81
2022/01/07 10:03:03;;;;;;;14.52;6.63;;;2.00;99.90;;;;;;5044385;28;20031;-83
2022/01/07 10:05:30;;;;;;;15.10;6.90;;;2.00;99.90;;;;;;5082355;28;20066;-80
2022/01/07 10:07:57;;;;;;;13.25;6.60;;;1.90;99.90;;;;;;5064622;28;20035;-83
2022/01/07 10:10:26;;;;;;;14.10;6.90;;;1.80;99.90;;;;;;5076648;28;20024;-81
2022/01/07 10:13:03;;;;;;;15.38;6.95;;;1.70;99.90;;;;;;5076943;28;20047;-80
2022/01/07 10:15:34;;;;;;;13.77;7.00;;;1.70;99.90;;;;;;5063559;28;20234;-81
2022/01/07 10:18:10;;;;;;;12.85;7.20;;;1.60;99.90;;;;;;5064395;28;20038;-83
2022/01/07 10:20:38;;;;;;;12.95;7.28;;;1.70;99.90;;;;;;5064080;28;20394;-82
2022/01/07 10:23:23;;;;;;;10.48;7.05;;;1.60;99.90;;;;;;5058112;28;20048;-83
2022/01/07 10:25:54;;;;;;;15.63;7.63;;;1.50;99.90;;;;;;5044747;28;20041;-81
2022/01/07 10:28:21;;;;;;;13.45;7.40;;;1.50;99.90;;;;;;5043747;28;20024;-80
2022/01/07 10:30:52;;;;;;;12.27;7.57;;;1.50;99.90;;;;;;5043825;28;20045;-81
2022/01/07 10:33:27;;;;;;;16.10;8.30;;;1.40;99.90;;;;;;5044201;28;20455;-83
2022/01/07 10:36:18;;;;;;;15.00;8.05;;;1.40;99.90;;;;;;5044799;28;20423;-81
2022/01/07 10:38:57;;;;;;;16.55;8.57;;;1.40;99.90;;;;;;5062047;28;20064;-80
2022/01/07 10:41:23;;;;;;;16.25;8.35;;;1.40;99.90;;;;;;5054719;28;20024;-81
2022/01/07 10:43:50;;;;;;;15.52;8.30;;;1.30;99.90;;;;;;5060552;28;20037;-81
2022/01/07 10:46:19;;;;;;;14.95;9.07;;;1.40;99.90;;;;;;5064122;28;20052;-79
2022/01/07 10:48:56;;;;;;;17.63;9.52;;;1.50;99.90;;;;;;5081937;28;20017;-79
2022/01/07 10:51:28;;;;;;;15.00;8.15;;;1.50;99.90;;;;;;5063906;28;20059;-82
2022/01/07 10:53:56;;;;;;;19.13;8.90;;;1.60;99.90;;;;;;5047472;28;20064;-83
2022/01/07 10:56:31;;;;;;;14.23;7.93;;;1.60;99.90;;;;;;5063846;28;20040;-82
2022/01/07 10:59:12;;;;;;;15.90;8.13;;;1.60;99.90;;;;;;5064362;28;20238;-82
2022/01/07 11:01:49;;;;;;;14.88;8.80;;;1.60;99.90;;;;;;5081007;28;20040;-83
2022/01/07 11:04:17;;;;;;;14.57;8.52;;;1.50;99.90;;;;;;5079640;28;20028;-83
2022/01/07 11:06:45;;;;;;;20.38;9.18;;;1.40;99.90;;;;;;5062281;28;20231;-82
2022/01/07 11:09:13;;;;;;;17.17;8.88;;;1.40;99.90;;;;;;5045376;28;20029;-81
2022/01/07 11:11:46;;;;;;;17.23;9.73;;;1.30;99.90;;;;;;5063314;28;20447;-82
2022/01/07 11:14:16;;;;;;;17.15;9.25;;;1.20;99.90;;;;;;5081615;28;20028;-82
2022/01/07 11:16:42;;;;;;;17.08;9.30;;;1.10;99.90;;;;;;5062648;28;20040;-81
2022/01/07 11:19:09;;;;;;;20.65;10.23;;;1.20;99.90;;;;;;5056366;28;20023;-81
2022/01/07 11:21:36;;;;;;;21.17;9.68;;;1.30;99.90;;;;;;5045515;28;20122;-82
2022/01/07 11:27:51;;;;;;;18.63;9.40;;;1.40;99.90;;;;;;5063034;28;20051;-79
2022/01/07 11:30:23;;;;;;;17.85;9.73;;;1.50;99.90;;;;;;5072732;28;20060;-80
2022/01/07 11:32:51;;;;;;;17.70;9.13;;;1.70;99.90;;;;;;5072122;28;20103;-80
2022/01/07 11:35:41;;;;;;;16.37;9.07;;;1.80;99.90;;;;;;5060171;28;20024;-79
2022/01/07 11:38:14;;;;;;;18.00;10.10;;;1.80;99.90;;;;;;5062659;28;20196;-79
2022/01/07 11:40:39;;;;;;;17.67;9.80;;;1.90;99.90;;;;;;5066503;28;20032;-80
2022/01/07 11:43:25;;;;;;;14.25;8.63;;;1.80;99.90;;;;;;5066998;28;20100;-81
2022/01/07 11:45:51;;;;;;;15.68;8.73;;;2.10;99.90;;;;;;5057071;28;20044;-80
2022/01/07 11:48:27;;;;;;;16.30;8.50;;;2.00;99.90;;;;;;5064507;28;20377;-80
2022/01/07 11:50:56;;;;;;;15.52;9.02;;;2.10;99.90;;;;;;5065187;28;20116;-80
2022/01/07 11:53:28;;;;;;;15.35;8.50;;;2.30;99.90;;;;;;5080126;28;20036;-79
2022/01/07 11:55:59;;;;;;;15.77;8.50;;;2.40;99.90;;;;;;5066876;28;20052;-80
2022/01/07 11:58:42;;;;;;;16.20;8.32;;;2.40;99.90;;;;;;5084399;28;20016;-81
2022/01/07 12:01:29;;;;;;;12.20;7.50;;;2.60;99.90;;;;;;5065955;28;20036;-78
2022/01/07 12:04:00;;;;;;;14.77;8.25;;;2.70;99.90;;;;;;5059899;28;20078;-80
2022/01/07 12:06:26;;;;;;;11.95;7.05;;;2.90;99.90;;;;;;5047863;28;20096;-79
2022/01/07 12:09:16;;;;;;;12.52;7.32;;;3.00;99.90;;;;;;5048211;28;20017;-78
2022/01/07 12:11:52;;;;;;;11.98;7.18;;;2.90;99.90;;;;;;5046192;28;20242;-80
2022/01/07 12:14:23;;;;;;;13.02;7.00;;;3.00;99.90;;;;;;5046910;28;20131;-79
2022/01/07 12:16:54;;;;;;;13.43;7.20;;;3.00;99.90;;;;;;5036891;28;20067;-80
2022/01/07 12:19:21;;;;;;;13.65;6.55;;;3.00;99.90;;;;;;5042149;28;20149;-81
2022/01/07 12:21:58;;;;;;;11.02;6.25;;;3.00;99.90;;;;;;5025369;28;20064;-80
2022/01/07 12:24:26;;;;;;;11.30;5.63;;;3.10;99.90;;;;;;5042270;28;20034;-83
2022/01/07 12:27:11;;;;;;;8.77;5.03;;;3.00;99.90;;;;;;5042406;28;20044;-83
2022/01/07 12:29:42;;;;;;;9.45;5.25;;;3.00;99.90;;;;;;5027410;28;20029;-81
2022/01/07 12:32:11;;;;;;;9.50;5.63;;;3.00;99.90;;;;;;5044759;28;20191;-83
2022/01/07 12:34:48;;;;;;;8.93;4.43;;;3.10;99.90;;;;;;5061515;28;20184;-81
2022/01/07 12:37:19;;;;;;;8.65;4.82;;;3.10;99.90;;;;;;5062173;28;20036;-79
2022/01/07 12:39:57;;;;;;;8.95;4.70;;;3.20;99.90;;;;;;5044990;28;20052;-79
2022/01/07 12:42:27;;;;;;;8.60;4.72;;;3.20;99.90;;;;;;5028567;28;20033;-81
2022/01/07 12:44:57;;;;;;;8.82;4.43;;;3.30;99.90;;;;;;5028732;28;20029;-81
2022/01/07 12:47:41;;;;;;;7.63;4.53;;;3.40;99.90;;;;;;5061449;28;20040;-82
2022/01/07 12:50:07;;;;;;;10.68;4.68;;;3.40;99.90;;;;;;5038638;28;20025;-81
2022/01/07 12:56:36;;;;;;;10.25;5.05;;;3.60;99.90;;;;;;5063793;28;20076;-79
2022/01/07 12:59:17;;;;;;;8.52;4.72;;;3.60;99.90;;;;;;5063685;28;20088;-79
2022/01/07 13:01:44;;;;;;;7.22;4.30;;;3.80;99.90;;;;;;5083851;28;20050;-80
2022/01/07 13:04:13;;;;;;;9.30;5.07;;;4.00;99.90;;;;;;5103915;28;20130;-83
2022/01/07 13:06:44;;;;;;;9.75;6.03;;;4.60;99.90;;;;;;5103248;28;20020;-81
2022/01/07 13:09:14;;;;;;;11.85;5.90;;;5.00;99.90;;;;;;5088901;28;20050;-82
2022/01/07 13:11:44;;;;;;;11.05;5.95;;;5.00;99.90;;;;;;5045174;28;20090;-81
2022/01/07 13:14:10;;;;;;;12.50;6.43;;;5.10;99.90;;;;;;5045573;28;20103;-80